createdAt,value
2022-08-26T06:46:44.328Z,4.10
2022-08-26T06:49:13.395Z,3.70
2022-08-26T06:51:41.448Z,3.70
2022-08-26T06:54:10.318Z,4.20
2022-08-26T06:56:41.782Z,4.40
2022-08-26T06:59:11.894Z,4.10
2022-08-26T07:01:46.757Z,4.00
2022-08-26T07:04:16.655Z,3.90
2022-08-26T07:06:53.561Z,4.10
2022-08-26T07:09:24.284Z,4.30
2022-08-26T07:11:53.745Z,4.30
2022-08-26T07:14:22.596Z,4.50
2022-08-26T07:16:51.141Z,4.00
2022-08-26T07:19:29.861Z,5.20
2022-08-26T07:22:04.024Z,4.50
2022-08-26T07:24:35.174Z,4.00
2022-08-26T07:27:06.530Z,4.20
2022-08-26T07:29:36.021Z,3.90
2022-08-26T07:32:04.789Z,4.30
2022-08-26T07:34:33.146Z,4.30
2022-08-26T07:37:01.557Z,3.60
2022-08-26T07:39:31.886Z,3.80
2022-08-26T07:42:07.600Z,3.90
2022-08-26T07:44:37.754Z,4.10
2022-08-26T07:47:10.568Z,4.20
2022-08-26T07:49:57.762Z,4.10
2022-08-26T07:52:30.428Z,5.40
2022-08-26T07:55:00.485Z,4.00
2022-08-26T07:57:30.989Z,4.00
2022-08-26T07:59:59.583Z,4.80
2022-08-26T08:02:29.206Z,4.30
2022-08-26T08:04:58.641Z,4.20
2022-08-26T08:07:38.698Z,4.20
2022-08-26T08:10:20.840Z,4.30
2022-08-26T08:12:50.122Z,4.10
2022-08-26T08:15:21.820Z,4.00
2022-08-26T08:17:51.482Z,4.10
2022-08-26T08:20:22.192Z,3.80
2022-08-26T08:22:52.836Z,3.80
2022-08-26T08:25:22.904Z,4.30
2022-08-26T08:27:51.279Z,3.70
2022-08-26T08:30:23.099Z,4.60
2022-08-26T08:32:52.500Z,3.90
2022-08-26T08:35:22.809Z,4.00
2022-08-26T08:37:54.362Z,3.80
2022-08-26T08:40:25.593Z,4.40
2022-08-26T08:43:06.525Z,4.00
2022-08-26T08:45:58.145Z,3.50
2022-08-26T08:48:32.250Z,3.70
2022-08-26T08:51:18.958Z,3.50
2022-08-26T08:53:49.729Z,3.50
2022-08-26T08:56:36.828Z,3.90
2022-08-26T08:59:14.305Z,4.00
2022-08-26T09:01:47.641Z,3.80
2022-08-26T09:04:58.142Z,3.60
2022-08-26T09:07:37.534Z,3.80
2022-08-26T09:10:05.761Z,3.70
2022-08-26T09:12:34.798Z,3.30
2022-08-26T09:15:18.972Z,3.70
2022-08-26T09:17:55.928Z,3.40
2022-08-26T09:20:23.921Z,4.10
2022-08-26T09:22:52.016Z,3.50
2022-08-26T09:25:20.359Z,3.50
2022-08-26T09:27:51.056Z,3.60
2022-08-26T09:30:26.872Z,3.30
2022-08-26T09:33:01.396Z,3.10
2022-08-26T09:35:33.626Z,3.90
2022-08-26T09:38:02.791Z,3.40
2022-08-26T09:40:36.350Z,3.60
2022-08-26T09:43:22.325Z,3.40
2022-08-26T09:46:17.707Z,3.50
2022-08-26T09:48:45.943Z,3.30
2022-08-26T09:51:23.385Z,3.20
2022-08-26T09:54:05.733Z,2.90
2022-08-26T09:56:38.753Z,3.10
2022-08-26T09:59:12.155Z,2.90
2022-08-26T10:01:45.288Z,3.30
2022-08-26T10:04:21.020Z,3.00
2022-08-26T10:07:01.994Z,3.10
2022-08-26T10:09:40.706Z,2.70
2022-08-26T10:12:16.020Z,2.80
2022-08-26T10:15:03.621Z,2.80
2022-08-26T10:17:38.393Z,2.90
2022-08-26T10:20:24.111Z,2.60
2022-08-26T10:23:23.308Z,2.90
2022-08-26T10:25:59.216Z,3.00
2022-08-26T10:28:37.303Z,3.60
2022-08-26T10:31:28.503Z,2.90
2022-08-26T10:34:00.388Z,3.00
2022-08-26T10:37:14.208Z,2.90
2022-08-26T10:39:51.860Z,2.90
2022-08-26T10:42:40.658Z,2.60
2022-08-26T10:45:15.119Z,2.80
2022-08-26T10:47:46.366Z,2.80
2022-08-26T10:50:19.037Z,3.20
2022-08-26T10:53:26.512Z,3.00
2022-08-26T10:56:15.681Z,3.00
2022-08-26T10:59:38.384Z,2.70
2022-08-26T11:02:37.160Z,3.00
2022-08-26T11:05:16.206Z,2.60
2022-08-26T11:07:48.551Z,2.90
2022-08-26T11:10:17.416Z,3.20
2022-08-26T11:12:49.171Z,2.90
2022-08-26T11:15:24.663Z,2.60
2022-08-26T11:17:52.863Z,3.20
2022-08-26T11:20:33.064Z,3.00
2022-08-26T11:23:13.343Z,2.50
2022-08-26T11:25:57.192Z,2.80
2022-08-26T11:28:45.629Z,2.80
2022-08-26T11:31:24.626Z,3.20
2022-08-26T11:34:07.233Z,2.70
2022-08-26T11:36:47.818Z,2.90
2022-08-26T11:39:52.669Z,3.00
2022-08-26T11:42:44.383Z,2.80
2022-08-26T11:45:24.597Z,2.90
2022-08-26T11:47:54.895Z,2.90
2022-08-26T11:50:26.727Z,2.80
2022-08-26T11:53:06.326Z,3.10
2022-08-26T11:55:41.950Z,2.90
2022-08-26T11:58:13.134Z,2.80
2022-08-26T12:00:45.700Z,3.10
2022-08-26T12:05:50.104Z,2.80
2022-08-26T12:08:21.743Z,3.30
2022-08-26T12:10:49.774Z,3.10
2022-08-26T12:13:26.321Z,2.90
2022-08-26T12:15:58.284Z,2.90
2022-08-26T12:18:30.718Z,2.80
2022-08-26T12:21:16.649Z,2.70
2022-08-26T12:23:51.050Z,3.00
2022-08-26T12:26:30.075Z,2.80
2022-08-26T12:29:09.981Z,3.50
2022-08-26T12:31:49.935Z,2.70
2022-08-26T12:34:19.518Z,2.60
2022-08-26T12:36:55.660Z,3.00
2022-08-26T12:39:37.921Z,3.20
2022-08-26T12:42:24.263Z,2.90
2022-08-26T12:45:04.058Z,3.00
2022-08-26T12:47:43.961Z,2.60
2022-08-26T12:50:33.518Z,2.80
2022-08-26T12:53:10.361Z,2.60
2022-08-26T12:55:53.009Z,2.90
2022-08-26T12:58:25.977Z,2.70
2022-08-26T13:03:31.050Z,2.70
2022-08-26T13:06:08.872Z,3.10
2022-08-26T13:08:53.098Z,3.30
2022-08-26T13:11:24.972Z,2.90
2022-08-26T13:14:15.868Z,2.60
2022-08-26T13:16:50.006Z,2.60
2022-08-26T13:19:25.458Z,2.90
2022-08-26T13:21:56.494Z,2.70
2022-08-26T13:24:38.713Z,2.70
2022-08-26T13:27:09.138Z,2.80
2022-08-26T13:29:37.204Z,2.90
2022-08-26T13:32:06.991Z,2.90
2022-08-26T13:34:36.876Z,2.50
2022-08-26T13:37:05.598Z,3.10
2022-08-26T13:39:33.829Z,2.70
2022-08-26T13:42:01.843Z,2.60
2022-08-26T13:44:29.796Z,2.50
2022-08-26T13:46:57.749Z,2.40
2022-08-26T13:49:25.751Z,2.60
2022-08-26T13:51:53.680Z,3.10
2022-08-26T13:54:22.035Z,2.50
2022-08-26T13:56:49.958Z,2.70
2022-08-26T13:59:17.982Z,3.00
2022-08-26T14:01:45.957Z,2.80
2022-08-26T14:04:14.016Z,2.60
2022-08-26T14:06:42.600Z,2.90
2022-08-26T14:09:11.435Z,2.70
2022-08-26T14:11:50.684Z,2.80
2022-08-26T14:16:58.727Z,2.50
2022-08-26T14:19:31.360Z,2.70
2022-08-26T14:22:01.511Z,2.80
2022-08-26T14:24:30.255Z,3.00
2022-08-26T14:26:58.666Z,2.60
2022-08-26T14:29:26.929Z,2.40
2022-08-26T14:31:56.464Z,2.90
2022-08-26T14:34:25.327Z,2.50
2022-08-26T14:36:53.630Z,2.50
2022-08-26T14:39:22.389Z,2.80
2022-08-26T14:41:54.967Z,2.90
2022-08-26T14:44:30.626Z,2.40
2022-08-26T14:47:02.083Z,2.50
2022-08-26T14:49:31.546Z,2.90
2022-08-26T14:51:59.724Z,2.40
2022-08-26T14:54:29.670Z,2.80
2022-08-26T14:57:02.337Z,2.60
2022-08-26T14:59:40.238Z,2.50
2022-08-26T15:02:13.660Z,2.70
2022-08-26T15:04:51.114Z,2.40
2022-08-26T15:07:21.124Z,2.90
2022-08-26T15:09:50.044Z,3.20
2022-08-26T15:12:18.193Z,2.40
2022-08-26T15:14:51.776Z,2.80
2022-08-26T15:17:21.344Z,2.50
2022-08-26T15:19:54.539Z,2.60
2022-08-26T15:22:29.425Z,2.30
2022-08-26T15:24:59.843Z,2.40
2022-08-26T15:27:28.606Z,2.40
2022-08-26T15:29:56.852Z,2.60
2022-08-26T15:32:25.134Z,2.60
2022-08-26T15:34:53.345Z,2.40
2022-08-26T15:37:21.421Z,2.50
2022-08-26T15:39:49.673Z,2.50
2022-08-26T15:42:17.886Z,2.30
2022-08-26T15:44:46.744Z,2.90
2022-08-26T15:47:15.178Z,2.90
2022-08-26T15:49:43.951Z,3.30
2022-08-26T15:52:12.047Z,2.80
2022-08-26T15:54:40.150Z,2.50
2022-08-26T15:57:11.481Z,2.80
2022-08-26T15:59:41.310Z,2.70
2022-08-26T16:02:09.933Z,2.60
2022-08-26T16:04:38.071Z,3.00
2022-08-26T16:07:06.360Z,3.00
2022-08-26T16:09:34.669Z,3.00
2022-08-26T16:12:03.340Z,2.80
2022-08-26T16:14:31.465Z,3.10
2022-08-26T16:16:59.583Z,3.00
2022-08-26T16:19:27.655Z,3.00
2022-08-26T16:21:55.585Z,2.90
2022-08-26T16:24:28.409Z,3.00
2022-08-26T16:26:58.291Z,3.20
2022-08-26T16:29:27.307Z,3.10
2022-08-26T16:31:55.367Z,3.30
2022-08-26T16:34:23.857Z,3.10
2022-08-26T16:36:52.371Z,3.20
2022-08-26T16:39:20.384Z,3.20
2022-08-26T16:41:48.416Z,3.20
2022-08-26T16:44:16.935Z,5.00
2022-08-26T16:46:45.916Z,3.50
2022-08-26T16:49:14.394Z,3.10
2022-08-26T16:51:42.420Z,4.30
2022-08-26T16:54:10.475Z,3.20
2022-08-26T16:56:39.158Z,3.10
2022-08-26T16:59:11.637Z,3.80
2022-08-26T17:01:42.903Z,3.20
2022-08-26T17:04:10.913Z,3.20
2022-08-26T17:06:38.899Z,3.10
2022-08-26T17:09:07.520Z,3.50
2022-08-26T17:11:35.742Z,3.70
2022-08-26T17:14:04.904Z,4.70
2022-08-26T17:16:33.069Z,4.00
2022-08-26T17:19:02.942Z,4.30
2022-08-26T17:21:36.714Z,4.20
2022-08-26T17:24:06.094Z,6.10
2022-08-26T17:26:34.790Z,4.70
2022-08-26T17:29:02.880Z,5.80
2022-08-26T17:31:32.791Z,4.60
2022-08-26T17:34:00.911Z,3.80
2022-08-26T17:36:29.120Z,4.40
2022-08-26T17:38:58.638Z,4.10
2022-08-26T17:41:27.391Z,4.70
2022-08-26T17:43:56.244Z,4.40
2022-08-26T17:46:24.760Z,5.00
2022-08-26T17:48:55.813Z,4.60
2022-08-26T17:51:24.605Z,4.50
2022-08-26T17:53:54.050Z,4.80
2022-08-26T17:56:29.360Z,5.30
2022-08-26T17:59:02.504Z,4.80
2022-08-26T18:01:32.190Z,5.20
2022-08-26T18:04:01.045Z,5.60
2022-08-26T18:06:30.901Z,6.10
2022-08-26T18:09:00.649Z,6.10
2022-08-26T18:11:30.043Z,6.20
2022-08-26T18:13:59.269Z,6.70
2022-08-26T18:16:30.230Z,7.30
2022-08-26T18:18:59.658Z,7.60
2022-08-26T18:21:28.136Z,7.40
2022-08-26T18:23:56.493Z,6.70
2022-08-26T18:26:28.533Z,6.60
2022-08-26T18:28:57.690Z,6.10
2022-08-26T18:31:26.828Z,6.30
2022-08-26T18:33:55.083Z,6.10
2022-08-26T18:36:26.883Z,5.80
2022-08-26T18:38:56.192Z,5.80
2022-08-26T18:41:26.447Z,5.30
2022-08-26T18:43:55.822Z,5.10
2022-08-26T18:46:26.269Z,4.90
2022-08-26T18:48:56.250Z,4.70
2022-08-26T18:51:29.738Z,4.00
2022-08-26T18:53:59.216Z,4.50
2022-08-26T18:56:28.773Z,4.50
2022-08-26T18:58:56.902Z,4.10
2022-08-26T19:01:27.695Z,4.20
2022-08-26T19:03:58.447Z,4.50
2022-08-26T19:06:28.677Z,4.20
2022-08-26T19:08:57.946Z,4.70
2022-08-26T19:11:31.672Z,4.20
2022-08-26T19:14:10.897Z,4.40
2022-08-26T19:16:39.207Z,4.80
2022-08-26T19:19:08.072Z,4.60
2022-08-26T19:21:38.284Z,4.10
2022-08-26T19:24:15.526Z,4.80
2022-08-26T19:26:45.951Z,3.90
2022-08-26T19:29:15.697Z,4.50
2022-08-26T19:31:44.161Z,3.70
2022-08-26T19:34:18.311Z,3.60
2022-08-26T19:36:49.416Z,3.80
2022-08-26T19:39:17.522Z,3.80
2022-08-26T19:41:45.837Z,4.30
2022-08-26T19:44:36.422Z,3.60
2022-08-26T19:47:07.314Z,3.90
2022-08-26T19:49:36.516Z,3.90
2022-08-26T19:52:06.538Z,4.00
2022-08-26T19:54:36.294Z,4.20
2022-08-26T19:57:04.916Z,3.90
2022-08-26T19:59:33.235Z,4.20
2022-08-26T20:02:02.227Z,4.70
2022-08-26T20:04:31.851Z,4.50
2022-08-26T20:07:01.315Z,4.60
2022-08-26T20:09:34.206Z,4.00
2022-08-26T20:12:03.253Z,4.00
2022-08-26T20:14:31.564Z,4.30
2022-08-26T20:17:01.484Z,4.20
2022-08-26T20:19:48.133Z,4.10
2022-08-26T20:22:17.154Z,4.40
2022-08-26T20:24:46.258Z,4.20
2022-08-26T20:27:15.636Z,4.20
2022-08-26T20:29:44.005Z,5.30
2022-08-26T20:32:12.318Z,3.90
2022-08-26T20:34:40.483Z,4.70
2022-08-26T20:37:08.582Z,4.40
2022-08-26T20:39:36.862Z,4.20
2022-08-26T20:42:06.913Z,4.00
2022-08-26T20:44:54.843Z,4.30
2022-08-26T20:47:23.423Z,4.00
2022-08-26T20:49:52.461Z,4.50
2022-08-26T20:52:20.892Z,4.50
2022-08-26T20:54:48.981Z,4.00
2022-08-26T20:57:17.062Z,4.10
2022-08-26T20:59:45.053Z,4.20
2022-08-26T21:02:13.057Z,3.70
2022-08-26T21:04:41.230Z,4.20
2022-08-26T21:07:09.278Z,4.20
2022-08-26T21:09:37.347Z,4.40
2022-08-26T21:12:06.629Z,5.00
2022-08-26T21:14:34.679Z,4.20
2022-08-26T21:17:02.824Z,4.30
2022-08-26T21:19:31.161Z,4.10
2022-08-26T21:21:59.663Z,3.70
2022-08-26T21:24:27.757Z,4.00
2022-08-26T21:26:55.727Z,4.40
2022-08-26T21:29:23.790Z,4.30
2022-08-26T21:31:51.890Z,3.90
2022-08-26T21:34:20.095Z,4.10
2022-08-26T21:36:49.635Z,3.70
2022-08-26T21:39:17.869Z,3.60
2022-08-26T21:41:47.356Z,3.80
2022-08-26T21:44:17.206Z,4.10
2022-08-26T21:46:46.602Z,4.00
2022-08-26T21:49:16.103Z,4.10
2022-08-26T21:51:47.529Z,4.10
2022-08-26T21:54:18.188Z,4.80
2022-08-26T21:56:47.431Z,4.20
2022-08-26T21:59:18.377Z,4.20
2022-08-26T22:01:47.830Z,4.00
2022-08-26T22:04:16.574Z,4.00
2022-08-26T22:06:49.928Z,3.90
2022-08-26T22:09:25.279Z,3.60
2022-08-26T22:11:56.936Z,3.80
2022-08-26T22:14:30.395Z,4.40
2022-08-26T22:16:59.997Z,3.90
2022-08-26T22:19:31.905Z,4.20
2022-08-26T22:22:03.753Z,4.10
2022-08-26T22:24:31.720Z,4.30
2022-08-26T22:26:59.740Z,4.40
2022-08-26T22:29:27.852Z,3.80
2022-08-26T22:31:57.297Z,3.90
2022-08-26T22:34:25.713Z,4.20
2022-08-26T22:36:54.246Z,4.50
2022-08-26T22:39:25.386Z,3.90
2022-08-26T22:41:54.620Z,4.20
2022-08-26T22:44:22.724Z,4.10
2022-08-26T22:46:54.305Z,3.80
2022-08-26T22:49:23.822Z,4.60
2022-08-26T22:51:51.870Z,3.80
2022-08-26T22:54:20.009Z,4.20
2022-08-26T22:56:48.802Z,4.50
2022-08-26T22:59:16.970Z,4.50
2022-08-26T23:01:46.945Z,4.20
2022-08-26T23:04:15.177Z,4.00
2022-08-26T23:06:47.546Z,4.00
2022-08-26T23:09:18.601Z,4.00
2022-08-26T23:11:48.625Z,4.20
2022-08-26T23:14:18.765Z,3.90
2022-08-26T23:16:47.738Z,3.70
2022-08-26T23:19:19.111Z,5.00
2022-08-26T23:21:49.701Z,4.30
2022-08-26T23:24:18.528Z,4.00
2022-08-26T23:26:47.121Z,4.00
2022-08-26T23:29:16.124Z,4.30
2022-08-26T23:31:44.966Z,4.30
2022-08-26T23:34:33.271Z,4.40
2022-08-26T23:37:02.171Z,4.30
2022-08-26T23:39:36.336Z,4.70
2022-08-26T23:42:06.257Z,3.90
2022-08-26T23:44:35.103Z,3.90
2022-08-26T23:47:03.660Z,4.30
2022-08-26T23:49:32.882Z,4.20
2022-08-26T23:52:19.680Z,4.20
2022-08-26T23:54:48.783Z,4.10
2022-08-26T23:57:18.822Z,4.20
2022-08-26T23:59:48.714Z,4.10
